To NAV CANADA Home Page Login to a new session Search on AWWS site Disclaimer Vers la page française équivalente Tips FAQ What's new on the site To the Forecasts and Observations / NOTAM section To "File a Flight Plan" website Publications and other links Update of the User's profile FIC Telephone Numbers My Weather Data Folder Route Weather Data Regional Weather Data Local Weather Data To the Forecasts and Observations / NOTAM section
Request Generated 05/25/2020 at 08:04:27 UTC . Weather information available at that time is displayed.


Go to a specific product

Save this request - Inactive

METAR/TAF

OTTAWA/MACDONALD-CARTIER INTL/ON    

METAR CYOW 250800Z 19008KT 15SM SCT065 OVC075 18/13 A3000 RMK SC3AC5 OCNL -SHRA SLP161 DENSITY ALT 800FT=
SPECI CYOW 250726Z 19014G21KT 10SM -SHRA SCT065 BKN080 OVC120 20/11 A3000 RMK SC3AC4AC1 CVCTV CLDS EMBD SLP161 DENSITY ALT 1000FT=
METAR CYOW 250700Z 19010G19KT 15SM SCT080 OVC120 21/10 A3000 RMK AC3AC5 SLP160 DENSITY ALT 1100FT=
METAR CYOW 250600Z 17011KT 15SM FEW080 SCT140 BKN220 21/09 A3000 RMK AC1AC3CI3 SLP158 DENSITY ALT 1100FT=

TAF CYOW 250538Z 2506/2606 17008KT P6SM FEW070 BKN200 TEMPO 2507/2508
P6SM -SHRA SCT030 BKN070 OVC150
FM250800 18010KT P6SM SCT012 OVC025 TEMPO 2508/2515 4SM -RA BR
SCT008 BKN012 OVC025
FM251500 21012KT P6SM FEW008 SCT015 BKN025 TEMPO 2515/2517 SCT008
BKN015
FM251900 22012KT P6SM SCT050 TEMPO 2519/2524 BKN050
FM260000 18007KT P6SM FEW060
RMK NXT FCST BY 250900Z=

OTTAWA/GATINEAU/QC    

LWIS CYND 250800Z AUTO 28004KT 220V320 16/14 A3003=
LWIS CYND 250700Z AUTO 07004KT 18/13 A3001=
LWIS CYND 250600Z AUTO 09005KT 18/11 A3001=

*** REMARK        : Forecast period has ended; this was the last TAF issued
*** REMARQUE : La période de prévision est échue; ceci était le dernier TAF qui a été émis
TAF CYND 241742Z 2418/2501 VRB03KT P6SM SCT080 BKN220
BECMG 2418/2420 13008KT
RMK NXT FCST WILL BE ISSUED AT 251245Z=


GRAPHICAL FA CLOUDS & WEATHER FORECASTS
To the Product Selector
Graphical FA gfacn33      

GRAPHICAL FA ICING, TURBULENCE & FREEZING LEVEL FORECASTS
To the Product Selector
Graphical FA gfacn33      

Your time UTC time
Weather data provided by Environment Canada and NAV CANADA